sensor_id;sensor_type;location;lat;lon;timestamp;temperature;humidity
20722;DHT22;10522;52.198;9.890;2024-03-17T00:02:17;3.30;99.90
20722;DHT22;10522;52.198;9.890;2024-03-17T00:04:44;3.30;99.90
20722;DHT22;10522;52.198;9.890;2024-03-17T00:07:11;3.30;99.90
20722;DHT22;10522;52.198;9.890;2024-03-17T00:09:37;3.30;99.90
20722;DHT22;10522;52.198;9.890;2024-03-17T00:12:02;3.40;99.90
20722;DHT22;10522;52.198;9.890;2024-03-17T00:14:28;3.50;99.90
20722;DHT22;10522;52.198;9.890;2024-03-17T00:16:54;3.50;99.90
20722;DHT22;10522;52.198;9.890;2024-03-17T00:19:20;3.50;99.90
20722;DHT22;10522;52.198;9.890;2024-03-17T00:21:48;3.40;99.90
20722;DHT22;10522;52.198;9.890;2024-03-17T00:24:16;3.40;99.90
20722;DHT22;10522;52.198;9.890;2024-03-17T00:26:42;3.30;99.90
20722;DHT22;10522;52.198;9.890;2024-03-17T00:29:07;3.30;99.90
20722;DHT22;10522;52.198;9.890;2024-03-17T00:31:33;3.30;99.90
20722;DHT22;10522;52.198;9.890;2024-03-17T00:33:59;3.30;99.90
20722;DHT22;10522;52.198;9.890;2024-03-17T00:36:24;3.40;99.90
20722;DHT22;10522;52.198;9.890;2024-03-17T00:38:50;3.40;99.90
20722;DHT22;10522;52.198;9.890;2024-03-17T00:41:17;3.50;99.90
20722;DHT22;10522;52.198;9.890;2024-03-17T00:43:44;3.60;99.90
20722;DHT22;10522;52.198;9.890;2024-03-17T00:46:10;3.80;99.90
20722;DHT22;10522;52.198;9.890;2024-03-17T00:48:35;3.90;99.90
20722;DHT22;10522;52.198;9.890;2024-03-17T00:51:01;4.00;99.90
20722;DHT22;10522;52.198;9.890;2024-03-17T00:53:28;4.00;99.90
20722;DHT22;10522;52.198;9.890;2024-03-17T00:55:55;3.90;99.90
20722;DHT22;10522;52.198;9.890;2024-03-17T00:58:23;3.90;99.90
20722;DHT22;10522;52.198;9.890;2024-03-17T01:00:49;3.80;99.90
20722;DHT22;10522;52.198;9.890;2024-03-17T01:03:15;3.60;99.90
20722;DHT22;10522;52.198;9.890;2024-03-17T01:05:41;3.70;99.90
20722;DHT22;10522;52.198;9.890;2024-03-17T01:08:10;3.80;99.90
20722;DHT22;10522;52.198;9.890;2024-03-17T01:10:40;4.00;99.90
20722;DHT22;10522;52.198;9.890;2024-03-17T01:13:06;4.10;99.90
20722;DHT22;10522;52.198;9.890;2024-03-17T01:15:33;4.30;99.90
20722;DHT22;10522;52.198;9.890;2024-03-17T01:17:58;4.10;99.90
20722;DHT22;10522;52.198;9.890;2024-03-17T01:20:25;4.10;99.90
20722;DHT22;10522;52.198;9.890;2024-03-17T01:22:51;4.10;99.90
20722;DHT22;10522;52.198;9.890;2024-03-17T01:25:18;4.10;99.90
20722;DHT22;10522;52.198;9.890;2024-03-17T01:27:43;4.20;99.90
20722;DHT22;10522;52.198;9.890;2024-03-17T01:30:12;4.10;99.90
20722;DHT22;10522;52.198;9.890;2024-03-17T01:32:38;4.10;99.90
20722;DHT22;10522;52.198;9.890;2024-03-17T01:35:05;4.00;99.90
20722;DHT22;10522;52.198;9.890;2024-03-17T01:37:33;4.00;99.90
20722;DHT22;10522;52.198;9.890;2024-03-17T01:39:59;4.00;99.90
20722;DHT22;10522;52.198;9.890;2024-03-17T01:42:25;3.90;99.90
20722;DHT22;10522;52.198;9.890;2024-03-17T01:44:50;3.80;99.90
20722;DHT22;10522;52.198;9.890;2024-03-17T01:47:19;3.70;99.90
20722;DHT22;10522;52.198;9.890;2024-03-17T01:49:46;3.70;99.90
20722;DHT22;10522;52.198;9.890;2024-03-17T01:52:14;3.70;99.90
20722;DHT22;10522;52.198;9.890;2024-03-17T01:54:40;3.60;99.90
20722;DHT22;10522;52.198;9.890;2024-03-17T01:57:06;3.60;99.90
20722;DHT22;10522;52.198;9.890;2024-03-17T01:59:32;3.60;99.90
20722;DHT22;10522;52.198;9.890;2024-03-17T02:01:58;3.60;99.90
20722;DHT22;10522;52.198;9.890;2024-03-17T02:04:23;3.50;99.90
20722;DHT22;10522;52.198;9.890;2024-03-17T02:06:49;3.50;99.90
20722;DHT22;10522;52.198;9.890;2024-03-17T02:09:15;3.50;99.90
20722;DHT22;10522;52.198;9.890;2024-03-17T02:11:40;3.50;99.90
20722;DHT22;10522;52.198;9.890;2024-03-17T02:14:07;3.40;99.90
20722;DHT22;10522;52.198;9.890;2024-03-17T02:16:33;3.50;99.90
20722;DHT22;10522;52.198;9.890;2024-03-17T02:18:59;3.30;99.90
20722;DHT22;10522;52.198;9.890;2024-03-17T02:21:26;3.40;99.90
20722;DHT22;10522;52.198;9.890;2024-03-17T02:23:55;3.40;99.90
20722;DHT22;10522;52.198;9.890;2024-03-17T02:26:22;3.40;99.90
20722;DHT22;10522;52.198;9.890;2024-03-17T02:28:49;3.40;99.90
20722;DHT22;10522;52.198;9.890;2024-03-17T02:31:20;3.50;99.90
20722;DHT22;10522;52.198;9.890;2024-03-17T02:33:47;3.40;99.90
20722;DHT22;10522;52.198;9.890;2024-03-17T02:36:13;3.40;99.90
20722;DHT22;10522;52.198;9.890;2024-03-17T02:38:39;3.40;99.90
20722;DHT22;10522;52.198;9.890;2024-03-17T02:41:23;3.40;99.90
20722;DHT22;10522;52.198;9.890;2024-03-17T02:43:49;3.40;99.90
20722;DHT22;10522;52.198;9.890;2024-03-17T02:46:17;3.30;99.90
20722;DHT22;10522;52.198;9.890;2024-03-17T02:48:45;3.30;99.90
20722;DHT22;10522;52.198;9.890;2024-03-17T02:51:16;3.20;99.90
20722;DHT22;10522;52.198;9.890;2024-03-17T02:53:44;3.40;99.90
20722;DHT22;10522;52.198;9.890;2024-03-17T02:56:13;3.50;99.90
20722;DHT22;10522;52.198;9.890;2024-03-17T02:58:43;3.50;99.90
20722;DHT22;10522;52.198;9.890;2024-03-17T03:01:10;3.40;99.90
20722;DHT22;10522;52.198;9.890;2024-03-17T03:03:36;3.40;99.90
20722;DHT22;10522;52.198;9.890;2024-03-17T03:06:02;3.30;99.90
20722;DHT22;10522;52.198;9.890;2024-03-17T03:08:30;3.30;99.90
20722;DHT22;10522;52.198;9.890;2024-03-17T03:10:56;3.20;99.90
20722;DHT22;10522;52.198;9.890;2024-03-17T03:13:21;3.30;99.90
20722;DHT22;10522;52.198;9.890;2024-03-17T03:15:48;3.20;99.90
20722;DHT22;10522;52.198;9.890;2024-03-17T03:18:15;3.20;99.90
20722;DHT22;10522;52.198;9.890;2024-03-17T03:20:41;3.20;99.90
20722;DHT22;10522;52.198;9.890;2024-03-17T03:23:06;3.10;99.90
20722;DHT22;10522;52.198;9.890;2024-03-17T03:25:32;3.10;99.90
20722;DHT22;10522;52.198;9.890;2024-03-17T03:27:58;3.00;99.90
20722;DHT22;10522;52.198;9.890;2024-03-17T03:30:24;3.10;99.90
20722;DHT22;10522;52.198;9.890;2024-03-17T03:32:50;2.90;99.90
20722;DHT22;10522;52.198;9.890;2024-03-17T03:35:16;2.80;99.90
20722;DHT22;10522;52.198;9.890;2024-03-17T03:37:42;2.70;99.90
20722;DHT22;10522;52.198;9.890;2024-03-17T03:40:11;2.70;99.90
20722;DHT22;10522;52.198;9.890;2024-03-17T03:42:45;2.60;99.90
20722;DHT22;10522;52.198;9.890;2024-03-17T03:45:11;2.60;99.90
20722;DHT22;10522;52.198;9.890;2024-03-17T03:47:40;2.70;99.90
20722;DHT22;10522;52.198;9.890;2024-03-17T03:50:15;2.70;99.90
20722;DHT22;10522;52.198;9.890;2024-03-17T03:52:40;2.80;99.90
20722;DHT22;10522;52.198;9.890;2024-03-17T03:55:08;2.80;99.90
20722;DHT22;10522;52.198;9.890;2024-03-17T03:57:36;2.80;99.90
20722;DHT22;10522;52.198;9.890;2024-03-17T04:00:03;2.90;99.90
20722;DHT22;10522;52.198;9.890;2024-03-17T04:02:42;2.90;99.90
20722;DHT22;10522;52.198;9.890;2024-03-17T04:05:08;2.90;99.90
20722;DHT22;10522;52.198;9.890;2024-03-17T04:07:34;2.90;99.90
20722;DHT22;10522;52.198;9.890;2024-03-17T04:10:02;2.80;99.90
20722;DHT22;10522;52.198;9.890;2024-03-17T04:12:27;2.80;99.90
20722;DHT22;10522;52.198;9.890;2024-03-17T04:14:53;2.80;99.90
20722;DHT22;10522;52.198;9.890;2024-03-17T04:17:20;2.90;99.90
20722;DHT22;10522;52.198;9.890;2024-03-17T04:19:47;2.90;99.90
20722;DHT22;10522;52.198;9.890;2024-03-17T04:22:14;2.90;99.90
20722;DHT22;10522;52.198;9.890;2024-03-17T04:24:40;2.90;99.90
20722;DHT22;10522;52.198;9.890;2024-03-17T04:27:06;2.80;99.90
20722;DHT22;10522;52.198;9.890;2024-03-17T04:29:32;2.70;99.90
20722;DHT22;10522;52.198;9.890;2024-03-17T04:31:57;2.70;99.90
20722;DHT22;10522;52.198;9.890;2024-03-17T04:34:23;2.60;99.90
20722;DHT22;10522;52.198;9.890;2024-03-17T04:36:48;2.70;99.90
20722;DHT22;10522;52.198;9.890;2024-03-17T04:39:15;2.70;99.90
20722;DHT22;10522;52.198;9.890;2024-03-17T04:41:40;2.60;99.90
20722;DHT22;10522;52.198;9.890;2024-03-17T04:44:10;2.70;99.90
20722;DHT22;10522;52.198;9.890;2024-03-17T04:46:36;2.70;99.90
20722;DHT22;10522;52.198;9.890;2024-03-17T04:49:01;2.60;99.90
20722;DHT22;10522;52.198;9.890;2024-03-17T04:51:29;2.50;99.90
20722;DHT22;10522;52.198;9.890;2024-03-17T04:53:55;2.40;99.90
20722;DHT22;10522;52.198;9.890;2024-03-17T04:56:21;2.40;99.90
20722;DHT22;10522;52.198;9.890;2024-03-17T04:58:48;2.30;99.90
20722;DHT22;10522;52.198;9.890;2024-03-17T05:01:13;2.20;99.90
20722;DHT22;10522;52.198;9.890;2024-03-17T05:03:39;2.20;99.90
20722;DHT22;10522;52.198;9.890;2024-03-17T05:06:05;2.20;99.90
20722;DHT22;10522;52.198;9.890;2024-03-17T05:08:32;2.20;99.90
20722;DHT22;10522;52.198;9.890;2024-03-17T05:11:00;2.40;99.90
20722;DHT22;10522;52.198;9.890;2024-03-17T05:13:30;2.30;99.90
20722;DHT22;10522;52.198;9.890;2024-03-17T05:15:56;2.30;99.90
20722;DHT22;10522;52.198;9.890;2024-03-17T05:18:22;2.30;99.90
20722;DHT22;10522;52.198;9.890;2024-03-17T05:21:00;2.30;99.90
20722;DHT22;10522;52.198;9.890;2024-03-17T05:23:27;2.30;99.90
20722;DHT22;10522;52.198;9.890;2024-03-17T05:25:54;2.30;99.90
20722;DHT22;10522;52.198;9.890;2024-03-17T05:28:20;2.30;99.90
20722;DHT22;10522;52.198;9.890;2024-03-17T05:30:46;2.20;99.90
20722;DHT22;10522;52.198;9.890;2024-03-17T05:33:13;2.30;99.90
20722;DHT22;10522;52.198;9.890;2024-03-17T05:35:39;2.20;99.90
20722;DHT22;10522;52.198;9.890;2024-03-17T05:38:04;2.20;99.90
20722;DHT22;10522;52.198;9.890;2024-03-17T05:40:30;2.20;99.90
20722;DHT22;10522;52.198;9.890;2024-03-17T05:42:58;2.30;99.90
20722;DHT22;10522;52.198;9.890;2024-03-17T05:45:25;2.40;99.90
20722;DHT22;10522;52.198;9.890;2024-03-17T05:47:51;2.50;99.90
20722;DHT22;10522;52.198;9.890;2024-03-17T05:50:16;2.60;99.90
20722;DHT22;10522;52.198;9.890;2024-03-17T05:52:42;2.60;99.90
20722;DHT22;10522;52.198;9.890;2024-03-17T05:55:08;2.70;99.90
20722;DHT22;10522;52.198;9.890;2024-03-17T05:57:33;2.80;99.90
20722;DHT22;10522;52.198;9.890;2024-03-17T05:59:59;2.80;99.90
20722;DHT22;10522;52.198;9.890;2024-03-17T06:02:25;2.90;99.90
20722;DHT22;10522;52.198;9.890;2024-03-17T06:04:50;3.00;99.90
20722;DHT22;10522;52.198;9.890;2024-03-17T06:07:16;3.10;99.90
20722;DHT22;10522;52.198;9.890;2024-03-17T06:09:42;3.10;99.90
20722;DHT22;10522;52.198;9.890;2024-03-17T06:12:07;3.20;99.90
20722;DHT22;10522;52.198;9.890;2024-03-17T06:14:33;3.20;99.90
20722;DHT22;10522;52.198;9.890;2024-03-17T06:16:59;3.20;99.90
20722;DHT22;10522;52.198;9.890;2024-03-17T06:19:25;3.30;99.90
20722;DHT22;10522;52.198;9.890;2024-03-17T06:21:51;3.40;99.90
20722;DHT22;10522;52.198;9.890;2024-03-17T06:24:17;3.40;99.90
20722;DHT22;10522;52.198;9.890;2024-03-17T06:26:42;3.40;99.90
20722;DHT22;10522;52.198;9.890;2024-03-17T06:29:08;3.40;99.90
20722;DHT22;10522;52.198;9.890;2024-03-17T06:31:34;3.50;99.90
20722;DHT22;10522;52.198;9.890;2024-03-17T06:33:59;3.50;99.90
20722;DHT22;10522;52.198;9.890;2024-03-17T06:36:25;3.50;99.90
20722;DHT22;10522;52.198;9.890;2024-03-17T06:38:51;3.60;99.90
20722;DHT22;10522;52.198;9.890;2024-03-17T06:41:16;3.60;99.90
20722;DHT22;10522;52.198;9.890;2024-03-17T06:43:42;3.70;99.90
20722;DHT22;10522;52.198;9.890;2024-03-17T06:46:09;3.80;99.90
20722;DHT22;10522;52.198;9.890;2024-03-17T06:48:35;3.80;99.90
20722;DHT22;10522;52.198;9.890;2024-03-17T06:51:01;3.90;99.90
20722;DHT22;10522;52.198;9.890;2024-03-17T06:53:26;3.90;99.90
20722;DHT22;10522;52.198;9.890;2024-03-17T06:55:56;3.90;99.90
20722;DHT22;10522;52.198;9.890;2024-03-17T06:58:23;4.00;99.90
20722;DHT22;10522;52.198;9.890;2024-03-17T07:00:54;4.30;99.90
20722;DHT22;10522;52.198;9.890;2024-03-17T07:03:22;4.30;99.90
20722;DHT22;10522;52.198;9.890;2024-03-17T07:05:52;4.40;99.90
20722;DHT22;10522;52.198;9.890;2024-03-17T07:08:18;4.50;99.90
20722;DHT22;10522;52.198;9.890;2024-03-17T07:10:58;4.60;99.90
20722;DHT22;10522;52.198;9.890;2024-03-17T07:13:25;4.70;99.90
20722;DHT22;10522;52.198;9.890;2024-03-17T07:15:52;4.80;99.90
20722;DHT22;10522;52.198;9.890;2024-03-17T07:18:22;4.90;99.90
20722;DHT22;10522;52.198;9.890;2024-03-17T07:21:03;5.00;99.90
20722;DHT22;10522;52.198;9.890;2024-03-17T07:23:44;5.10;99.90
20722;DHT22;10522;52.198;9.890;2024-03-17T07:26:23;5.30;99.90
20722;DHT22;10522;52.198;9.890;2024-03-17T07:28:50;5.40;99.90
20722;DHT22;10522;52.198;9.890;2024-03-17T07:31:18;5.50;99.90
20722;DHT22;10522;52.198;9.890;2024-03-17T07:33:47;5.60;99.90
20722;DHT22;10522;52.198;9.890;2024-03-17T07:36:15;5.50;99.90
20722;DHT22;10522;52.198;9.890;2024-03-17T07:38:41;5.50;99.90
20722;DHT22;10522;52.198;9.890;2024-03-17T07:41:09;5.50;99.90
20722;DHT22;10522;52.198;9.890;2024-03-17T07:43:38;5.60;99.90
20722;DHT22;10522;52.198;9.890;2024-03-17T07:46:11;5.60;99.90
20722;DHT22;10522;52.198;9.890;2024-03-17T07:48:43;5.60;99.90
20722;DHT22;10522;52.198;9.890;2024-03-17T07:51:13;5.70;99.90
20722;DHT22;10522;52.198;9.890;2024-03-17T07:53:40;5.80;99.90
20722;DHT22;10522;52.198;9.890;2024-03-17T07:56:13;5.80;99.90
20722;DHT22;10522;52.198;9.890;2024-03-17T07:58:42;5.90;99.90
20722;DHT22;10522;52.198;9.890;2024-03-17T08:01:10;5.90;99.90
20722;DHT22;10522;52.198;9.890;2024-03-17T08:03:40;5.90;99.90
20722;DHT22;10522;52.198;9.890;2024-03-17T08:06:22;5.90;99.90
20722;DHT22;10522;52.198;9.890;2024-03-17T08:08:51;6.10;99.90
20722;DHT22;10522;52.198;9.890;2024-03-17T08:11:17;6.20;99.90
20722;DHT22;10522;52.198;9.890;2024-03-17T08:13:48;6.30;99.90
20722;DHT22;10522;52.198;9.890;2024-03-17T08:16:18;6.60;99.90
20722;DHT22;10522;52.198;9.890;2024-03-17T08:18:44;6.60;99.90
20722;DHT22;10522;52.198;9.890;2024-03-17T08:21:12;6.70;99.90
20722;DHT22;10522;52.198;9.890;2024-03-17T08:23:39;6.70;99.90
20722;DHT22;10522;52.198;9.890;2024-03-17T08:26:17;6.80;99.90
20722;DHT22;10522;52.198;9.890;2024-03-17T08:28:47;6.90;99.90
20722;DHT22;10522;52.198;9.890;2024-03-17T08:31:13;7.20;99.90
20722;DHT22;10522;52.198;9.890;2024-03-17T08:33:41;7.20;99.90
20722;DHT22;10522;52.198;9.890;2024-03-17T08:36:08;7.30;99.90
20722;DHT22;10522;52.198;9.890;2024-03-17T08:38:35;7.50;99.90
20722;DHT22;10522;52.198;9.890;2024-03-17T08:41:09;7.50;99.90
20722;DHT22;10522;52.198;9.890;2024-03-17T08:43:36;7.40;99.90
20722;DHT22;10522;52.198;9.890;2024-03-17T08:46:07;7.40;99.90
20722;DHT22;10522;52.198;9.890;2024-03-17T08:48:35;7.60;99.90
20722;DHT22;10522;52.198;9.890;2024-03-17T08:51:02;7.60;99.90
20722;DHT22;10522;52.198;9.890;2024-03-17T08:53:29;7.70;99.90
20722;DHT22;10522;52.198;9.890;2024-03-17T08:55:56;7.60;99.90
20722;DHT22;10522;52.198;9.890;2024-03-17T08:58:22;7.70;99.90
20722;DHT22;10522;52.198;9.890;2024-03-17T09:00:48;7.70;99.90
20722;DHT22;10522;52.198;9.890;2024-03-17T09:03:14;7.70;99.90
20722;DHT22;10522;52.198;9.890;2024-03-17T09:05:42;8.00;99.90
20722;DHT22;10522;52.198;9.890;2024-03-17T09:08:19;8.00;99.90
20722;DHT22;10522;52.198;9.890;2024-03-17T09:10:49;8.30;99.90
20722;DHT22;10522;52.198;9.890;2024-03-17T09:13:20;8.30;99.90
20722;DHT22;10522;52.198;9.890;2024-03-17T09:15:59;8.60;99.90
20722;DHT22;10522;52.198;9.890;2024-03-17T09:18:29;8.70;99.90
20722;DHT22;10522;52.198;9.890;2024-03-17T09:21:04;8.70;99.90
20722;DHT22;10522;52.198;9.890;2024-03-17T09:23:33;8.80;99.90
20722;DHT22;10522;52.198;9.890;2024-03-17T09:26:09;8.80;99.90
20722;DHT22;10522;52.198;9.890;2024-03-17T09:28:41;9.10;99.90
20722;DHT22;10522;52.198;9.890;2024-03-17T09:31:07;9.20;99.90
20722;DHT22;10522;52.198;9.890;2024-03-17T09:33:34;9.30;99.90
20722;DHT22;10522;52.198;9.890;2024-03-17T09:36:05;9.40;99.90
20722;DHT22;10522;52.198;9.890;2024-03-17T09:38:34;9.70;99.90
20722;DHT22;10522;52.198;9.890;2024-03-17T09:41:01;9.70;99.90
20722;DHT22;10522;52.198;9.890;2024-03-17T09:43:32;9.40;99.90
20722;DHT22;10522;52.198;9.890;2024-03-17T09:45:59;9.30;99.90
20722;DHT22;10522;52.198;9.890;2024-03-17T09:48:25;9.30;99.90
20722;DHT22;10522;52.198;9.890;2024-03-17T09:50:57;9.30;99.90
20722;DHT22;10522;52.198;9.890;2024-03-17T09:53:25;9.20;99.90
20722;DHT22;10522;52.198;9.890;2024-03-17T09:56:00;9.50;99.90
20722;DHT22;10522;52.198;9.890;2024-03-17T09:58:26;9.50;99.90
20722;DHT22;10522;52.198;9.890;2024-03-17T10:00:51;9.50;99.90
20722;DHT22;10522;52.198;9.890;2024-03-17T10:06:12;9.30;99.90
20722;DHT22;10522;52.198;9.890;2024-03-17T10:08:53;9.10;99.90
20722;DHT22;10522;52.198;9.890;2024-03-17T10:11:32;9.40;99.90
20722;DHT22;10522;52.198;9.890;2024-03-17T10:14:02;9.40;99.90
20722;DHT22;10522;52.198;9.890;2024-03-17T10:16:30;9.40;99.90
20722;DHT22;10522;52.198;9.890;2024-03-17T10:19:13;9.60;99.90
20722;DHT22;10522;52.198;9.890;2024-03-17T10:21:40;9.40;99.90
20722;DHT22;10522;52.198;9.890;2024-03-17T10:24:27;9.20;99.90
20722;DHT22;10522;52.198;9.890;2024-03-17T10:26:58;9.20;99.90
20722;DHT22;10522;52.198;9.890;2024-03-17T10:29:26;9.20;99.90
20722;DHT22;10522;52.198;9.890;2024-03-17T10:32:13;9.20;99.90
20722;DHT22;10522;52.198;9.890;2024-03-17T10:34:40;9.10;99.90
20722;DHT22;10522;52.198;9.890;2024-03-17T10:37:19;9.20;99.90
20722;DHT22;10522;52.198;9.890;2024-03-17T10:39:50;9.30;99.90
20722;DHT22;10522;52.198;9.890;2024-03-17T10:42:25;9.40;99.90
20722;DHT22;10522;52.198;9.890;2024-03-17T10:44:51;9.40;99.90
20722;DHT22;10522;52.198;9.890;2024-03-17T10:47:24;9.40;99.90
20722;DHT22;10522;52.198;9.890;2024-03-17T10:49:51;9.60;99.90
20722;DHT22;10522;52.198;9.890;2024-03-17T10:52:18;9.70;99.90
20722;DHT22;10522;52.198;9.890;2024-03-17T10:54:54;9.90;99.90
20722;DHT22;10522;52.198;9.890;2024-03-17T10:57:35;10.20;99.90
20722;DHT22;10522;52.198;9.890;2024-03-17T11:00:06;10.30;99.90
20722;DHT22;10522;52.198;9.890;2024-03-17T11:02:34;10.60;99.90
20722;DHT22;10522;52.198;9.890;2024-03-17T11:05:05;10.70;99.90
20722;DHT22;10522;52.198;9.890;2024-03-17T11:07:33;10.80;99.90
20722;DHT22;10522;52.198;9.890;2024-03-17T11:10:03;10.90;99.90
20722;DHT22;10522;52.198;9.890;2024-03-17T11:17:54;10.30;99.90
20722;DHT22;10522;52.198;9.890;2024-03-17T11:20:25;10.20;99.90
20722;DHT22;10522;52.198;9.890;2024-03-17T11:22:56;10.40;99.90
20722;DHT22;10522;52.198;9.890;2024-03-17T11:27:51;11.10;99.90
20722;DHT22;10522;52.198;9.890;2024-03-17T11:41:40;11.60;99.90
20722;DHT22;10522;52.198;9.890;2024-03-17T11:47:05;12.00;99.90
20722;DHT22;10522;52.198;9.890;2024-03-17T11:49:41;12.40;99.90
20722;DHT22;10522;52.198;9.890;2024-03-17T11:52:15;12.50;99.90
20722;DHT22;10522;52.198;9.890;2024-03-17T11:54:45;12.10;99.90
20722;DHT22;10522;52.198;9.890;2024-03-17T11:57:20;11.70;99.90
20722;DHT22;10522;52.198;9.890;2024-03-17T11:59:48;11.60;99.90
20722;DHT22;10522;52.198;9.890;2024-03-17T12:02:23;11.90;99.90
20722;DHT22;10522;52.198;9.890;2024-03-17T12:04:49;12.20;99.90
20722;DHT22;10522;52.198;9.890;2024-03-17T12:07:19;12.60;99.90
20722;DHT22;10522;52.198;9.890;2024-03-17T12:09:50;12.50;99.90
20722;DHT22;10522;52.198;9.890;2024-03-17T12:12:26;12.60;99.90
20722;DHT22;10522;52.198;9.890;2024-03-17T12:15:00;12.40;99.90
20722;DHT22;10522;52.198;9.890;2024-03-17T12:17:26;13.00;99.90
20722;DHT22;10522;52.198;9.890;2024-03-17T12:19:56;13.10;99.90
20722;DHT22;10522;52.198;9.890;2024-03-17T12:22:23;13.10;99.90
20722;DHT22;10522;52.198;9.890;2024-03-17T12:24:52;12.90;99.90
20722;DHT22;10522;52.198;9.890;2024-03-17T12:27:26;12.40;99.90
20722;DHT22;10522;52.198;9.890;2024-03-17T12:29:52;12.50;99.90
20722;DHT22;10522;52.198;9.890;2024-03-17T12:32:20;12.60;99.90
20722;DHT22;10522;52.198;9.890;2024-03-17T12:34:49;12.60;99.90
20722;DHT22;10522;52.198;9.890;2024-03-17T12:37:20;12.70;99.90
20722;DHT22;10522;52.198;9.890;2024-03-17T12:39:46;12.70;99.90
20722;DHT22;10522;52.198;9.890;2024-03-17T12:42:14;12.70;99.90
20722;DHT22;10522;52.198;9.890;2024-03-17T12:47:25;12.60;99.90
20722;DHT22;10522;52.198;9.890;2024-03-17T12:49:58;13.00;99.90
20722;DHT22;10522;52.198;9.890;2024-03-17T12:52:26;12.70;99.90
20722;DHT22;10522;52.198;9.890;2024-03-17T12:55:06;12.90;99.90
20722;DHT22;10522;52.198;9.890;2024-03-17T13:03:27;12.70;99.90
20722;DHT22;10522;52.198;9.890;2024-03-17T13:05:54;13.20;99.90
20722;DHT22;10522;52.198;9.890;2024-03-17T13:08:20;13.40;99.90
20722;DHT22;10522;52.198;9.890;2024-03-17T13:10:46;13.60;99.90
20722;DHT22;10522;52.198;9.890;2024-03-17T13:13:13;13.70;99.90
20722;DHT22;10522;52.198;9.890;2024-03-17T13:15:42;13.70;99.90
20722;DHT22;10522;52.198;9.890;2024-03-17T13:18:08;13.30;99.90
20722;DHT22;10522;52.198;9.890;2024-03-17T13:20:34;13.30;99.90
20722;DHT22;10522;52.198;9.890;2024-03-17T13:23:01;13.40;99.90
20722;DHT22;10522;52.198;9.890;2024-03-17T13:25:30;13.50;99.90
20722;DHT22;10522;52.198;9.890;2024-03-17T13:28:00;13.40;99.90
20722;DHT22;10522;52.198;9.890;2024-03-17T13:30:26;13.20;99.90
20722;DHT22;10522;52.198;9.890;2024-03-17T13:32:54;13.20;99.90
20722;DHT22;10522;52.198;9.890;2024-03-17T13:35:29;13.30;99.90
20722;DHT22;10522;52.198;9.890;2024-03-17T13:37:57;13.30;99.90
20722;DHT22;10522;52.198;9.890;2024-03-17T13:40:27;13.70;99.90
20722;DHT22;10522;52.198;9.890;2024-03-17T13:42:55;13.10;99.90
20722;DHT22;10522;52.198;9.890;2024-03-17T13:55:42;12.80;99.90
20722;DHT22;10522;52.198;9.890;2024-03-17T13:58:07;12.90;99.90
20722;DHT22;10522;52.198;9.890;2024-03-17T14:00:33;13.00;99.90
20722;DHT22;10522;52.198;9.890;2024-03-17T14:03:04;12.70;99.90
20722;DHT22;10522;52.198;9.890;2024-03-17T14:05:30;12.90;99.90
20722;DHT22;10522;52.198;9.890;2024-03-17T14:07:59;13.00;99.90
20722;DHT22;10522;52.198;9.890;2024-03-17T14:10:25;13.10;99.90
20722;DHT22;10522;52.198;9.890;2024-03-17T14:12:51;13.60;99.90
20722;DHT22;10522;52.198;9.890;2024-03-17T14:15:19;13.50;99.90
20722;DHT22;10522;52.198;9.890;2024-03-17T14:17:46;13.40;99.90
20722;DHT22;10522;52.198;9.890;2024-03-17T14:20:13;13.50;99.90
20722;DHT22;10522;52.198;9.890;2024-03-17T14:22:40;13.60;99.90
20722;DHT22;10522;52.198;9.890;2024-03-17T14:25:16;14.00;99.90
20722;DHT22;10522;52.198;9.890;2024-03-17T14:27:45;14.60;99.90
20722;DHT22;10522;52.198;9.890;2024-03-17T14:30:15;14.70;99.90
20722;DHT22;10522;52.198;9.890;2024-03-17T14:32:42;14.50;99.90
20722;DHT22;10522;52.198;9.890;2024-03-17T14:35:13;14.10;99.90
20722;DHT22;10522;52.198;9.890;2024-03-17T14:37:40;14.40;99.90
20722;DHT22;10522;52.198;9.890;2024-03-17T14:40:08;14.20;99.90
20722;DHT22;10522;52.198;9.890;2024-03-17T14:42:40;14.10;99.90
20722;DHT22;10522;52.198;9.890;2024-03-17T14:45:07;14.60;99.90
20722;DHT22;10522;52.198;9.890;2024-03-17T14:47:33;14.60;99.90
20722;DHT22;10522;52.198;9.890;2024-03-17T14:49:59;14.80;99.90
20722;DHT22;10522;52.198;9.890;2024-03-17T14:52:25;15.30;99.90
20722;DHT22;10522;52.198;9.890;2024-03-17T14:54:51;15.20;99.90
20722;DHT22;10522;52.198;9.890;2024-03-17T14:57:19;15.30;99.90
20722;DHT22;10522;52.198;9.890;2024-03-17T14:59:46;15.80;99.90
20722;DHT22;10522;52.198;9.890;2024-03-17T15:02:12;16.10;99.90
20722;DHT22;10522;52.198;9.890;2024-03-17T15:04:37;15.70;99.90
20722;DHT22;10522;52.198;9.890;2024-03-17T15:07:03;15.20;99.90
20722;DHT22;10522;52.198;9.890;2024-03-17T15:09:29;15.10;99.90
20722;DHT22;10522;52.198;9.890;2024-03-17T15:11:54;15.80;99.90
20722;DHT22;10522;52.198;9.890;2024-03-17T15:14:20;15.50;99.90
20722;DHT22;10522;52.198;9.890;2024-03-17T15:16:46;15.50;99.90
20722;DHT22;10522;52.198;9.890;2024-03-17T15:19:11;15.40;99.90
20722;DHT22;10522;52.198;9.890;2024-03-17T15:21:37;14.90;99.90
20722;DHT22;10522;52.198;9.890;2024-03-17T15:24:03;14.30;99.90
20722;DHT22;10522;52.198;9.890;2024-03-17T15:26:29;14.10;99.90
20722;DHT22;10522;52.198;9.890;2024-03-17T15:28:55;13.40;99.90
20722;DHT22;10522;52.198;9.890;2024-03-17T15:31:21;13.40;99.90
20722;DHT22;10522;52.198;9.890;2024-03-17T15:33:50;13.20;99.90
20722;DHT22;10522;52.198;9.890;2024-03-17T15:36:16;12.60;99.90
20722;DHT22;10522;52.198;9.890;2024-03-17T15:38:42;12.40;99.90
20722;DHT22;10522;52.198;9.890;2024-03-17T15:41:09;11.90;99.90
20722;DHT22;10522;52.198;9.890;2024-03-17T15:43:39;11.70;99.90
20722;DHT22;10522;52.198;9.890;2024-03-17T15:46:09;11.50;99.90
20722;DHT22;10522;52.198;9.890;2024-03-17T15:48:36;11.40;99.90
20722;DHT22;10522;52.198;9.890;2024-03-17T15:51:03;11.40;99.90
20722;DHT22;10522;52.198;9.890;2024-03-17T15:53:29;11.40;99.90
20722;DHT22;10522;52.198;9.890;2024-03-17T15:56:00;11.20;99.90
20722;DHT22;10522;52.198;9.890;2024-03-17T15:58:27;11.20;99.90
20722;DHT22;10522;52.198;9.890;2024-03-17T16:00:57;11.10;99.90
20722;DHT22;10522;52.198;9.890;2024-03-17T16:03:34;11.10;99.90
20722;DHT22;10522;52.198;9.890;2024-03-17T16:06:10;11.10;99.90
20722;DHT22;10522;52.198;9.890;2024-03-17T16:08:42;11.00;99.90
20722;DHT22;10522;52.198;9.890;2024-03-17T16:11:10;10.90;99.90
20722;DHT22;10522;52.198;9.890;2024-03-17T16:13:39;10.90;99.90
20722;DHT22;10522;52.198;9.890;2024-03-17T16:16:11;10.90;99.90
20722;DHT22;10522;52.198;9.890;2024-03-17T16:18:39;10.80;99.90
20722;DHT22;10522;52.198;9.890;2024-03-17T16:21:09;10.80;99.90
20722;DHT22;10522;52.198;9.890;2024-03-17T16:23:43;10.90;99.90
20722;DHT22;10522;52.198;9.890;2024-03-17T16:26:09;10.80;99.90
20722;DHT22;10522;52.198;9.890;2024-03-17T16:28:37;10.60;99.90
20722;DHT22;10522;52.198;9.890;2024-03-17T16:31:04;10.60;99.90
20722;DHT22;10522;52.198;9.890;2024-03-17T16:33:33;10.50;99.90